Strona główna
METAR-TAF:

METAR-TAF

Lotnisko :

Wahpeton, Dakota Północna, Stany Zjednoczone

Szerokość geograficzna: 46-14-39N, Długość geograficzna: 096-36-26W, wysokość: 295 m

Aktualna obserwacja pogody

Raport powstał 29 minut temu, godzina 18:15 UTC
Wiatr 9 kt od południowo-południowy zachód
Temperatura 27°C
Wilgotność 54%
Ciśnienie 1007 hPa
Widzialność: 16.1 km
bezchmurnie

METAR: KBWP 171815Z AUTO 21009KT 10SM CLR 27/17 A2974 RMK AO1

czas: 13:44 (18:44 UTC)


TAF: brakujący

Obserwacja i prognoza pogody dla ponad 4000 lotnisk (raport METAR i TAF).

Dostępne stacje oznaczono żółtymi i czerwonymi punktami na mapie.

Najedź kursorem aby zobaczyć nazwę stacji.

Kliknij aby zobaczyć obserwacje i prognozy pogody.

Aby zmienić mapę: kliknij na zielony przycisk z czarnym krzyżykiem, aby powiększyć; na zielony przycisk z myślnikiem, aby pomniejszyć; na zielone strzałki, aby przejść do map sąsiednich.


METAR-TAF: